createdAt,value
2019-05-21T00:00:29.270Z,32.33
2019-05-21T00:02:57.448Z,33.90
2019-05-21T00:05:25.589Z,32.13
2019-05-21T00:07:53.700Z,31.70
2019-05-21T00:10:21.940Z,29.93
2019-05-21T00:12:50.048Z,34.80
2019-05-21T00:15:18.640Z,32.60
2019-05-21T00:17:46.772Z,33.93
2019-05-21T00:20:15.118Z,36.30
2019-05-21T00:22:43.248Z,36.40
2019-05-21T00:25:11.632Z,36.97
2019-05-21T00:27:39.842Z,38.17
2019-05-21T00:30:26.489Z,38.03
2019-05-21T00:33:12.975Z,37.40
2019-05-21T00:35:59.153Z,41.60
2019-05-21T00:38:45.705Z,41.43
2019-05-21T00:41:31.802Z,45.23
2019-05-21T00:43:59.948Z,42.03
2019-05-21T00:46:28.069Z,44.47
2019-05-21T00:48:56.211Z,38.97
2019-05-21T00:51:24.322Z,38.33
2019-05-21T00:53:52.452Z,41.93
2019-05-21T00:56:20.565Z,41.10
2019-05-21T00:58:48.706Z,43.43
2019-05-21T01:01:16.905Z,42.97
2019-05-21T01:03:45.036Z,42.77
2019-05-21T01:06:13.157Z,41.83
2019-05-21T01:08:41.312Z,46.50
2019-05-21T01:11:09.436Z,40.93
2019-05-21T01:13:37.545Z,42.53
2019-05-21T01:16:05.682Z,42.50
2019-05-21T01:18:33.809Z,44.63
2019-05-21T01:21:01.956Z,45.77
2019-05-21T01:23:30.145Z,43.97
2019-05-21T01:25:58.366Z,43.07
2019-05-21T01:28:26.475Z,36.80
2019-05-21T01:30:54.613Z,43.63
2019-05-21T01:33:22.740Z,44.53
2019-05-21T01:35:50.890Z,42.90
2019-05-21T01:38:19.036Z,41.37
2019-05-21T01:40:47.216Z,42.27
2019-05-21T01:43:15.331Z,44.07
2019-05-21T01:45:43.475Z,43.33
2019-05-21T01:48:11.587Z,42.53
2019-05-21T01:50:39.730Z,42.73
2019-05-21T01:53:07.843Z,41.80
2019-05-21T01:55:36.001Z,44.57
2019-05-21T01:58:04.116Z,45.00
2019-05-21T02:00:32.256Z,40.47
2019-05-21T02:03:03.399Z,46.00
2019-05-21T02:05:33.349Z,45.43
2019-05-21T02:08:01.833Z,42.73
2019-05-21T02:10:29.987Z,44.43
2019-05-21T02:12:58.198Z,42.83
2019-05-21T02:15:26.657Z,44.33
2019-05-21T02:17:54.788Z,40.80
2019-05-21T02:20:22.905Z,41.93
2019-05-21T02:22:51.068Z,40.23
2019-05-21T02:25:19.319Z,42.13
2019-05-21T02:27:47.729Z,41.63
2019-05-21T02:30:16.009Z,42.57
2019-05-21T02:32:44.120Z,41.57
2019-05-21T02:35:12.330Z,39.13
2019-05-21T02:37:40.444Z,40.77
2019-05-21T02:40:09.052Z,41.00
2019-05-21T02:42:37.180Z,39.47
2019-05-21T02:45:05.992Z,38.43
2019-05-21T02:47:34.113Z,41.47
2019-05-21T02:50:02.262Z,38.03
2019-05-21T02:52:30.625Z,40.13
2019-05-21T02:54:58.774Z,42.10
2019-05-21T02:57:40.469Z,39.87
2019-05-21T03:00:28.197Z,38.10
2019-05-21T03:02:56.659Z,41.63
2019-05-21T03:05:24.955Z,39.43
2019-05-21T03:07:53.131Z,39.90
2019-05-21T03:10:21.266Z,36.27
2019-05-21T03:12:49.453Z,38.70
2019-05-21T03:15:17.588Z,35.83
2019-05-21T03:17:45.713Z,34.70
2019-05-21T03:20:14.209Z,36.03
2019-05-21T03:22:42.361Z,35.77
2019-05-21T03:25:10.716Z,38.60
2019-05-21T03:27:38.848Z,39.23
2019-05-21T03:30:07.568Z,36.30
2019-05-21T03:32:35.753Z,38.80
2019-05-21T03:35:08.132Z,38.67
2019-05-21T03:37:36.391Z,38.10
2019-05-21T03:40:07.507Z,36.50
2019-05-21T03:42:35.708Z,34.23
2019-05-21T03:45:07.877Z,37.20
2019-05-21T03:47:34.862Z,39.80
2019-05-21T03:50:04.161Z,39.03
2019-05-21T03:52:32.366Z,34.90
2019-05-21T03:55:03.028Z,35.07
2019-05-21T03:57:30.481Z,36.87
2019-05-21T03:59:58.598Z,36.10
2019-05-21T04:02:27.024Z,36.87
2019-05-21T04:04:55.149Z,39.20
2019-05-21T04:07:23.270Z,36.67
2019-05-21T04:09:51.429Z,40.43
2019-05-21T04:12:19.635Z,40.93
2019-05-21T04:14:49.384Z,43.70
2019-05-21T04:17:22.301Z,44.50
2019-05-21T04:19:51.891Z,43.60
2019-05-21T04:22:20.000Z,39.87
2019-05-21T04:24:48.131Z,43.20
2019-05-21T04:27:16.249Z,40.43
2019-05-21T04:29:44.396Z,40.80
2019-05-21T04:32:12.529Z,40.27
2019-05-21T04:34:40.656Z,39.60
2019-05-21T04:37:11.414Z,38.30
2019-05-21T04:39:38.759Z,38.93
2019-05-21T04:42:06.882Z,37.17
2019-05-21T04:44:35.022Z,37.13
2019-05-21T04:47:03.136Z,38.03
2019-05-21T04:49:31.315Z,38.73
2019-05-21T04:51:59.474Z,36.33
2019-05-21T04:54:27.686Z,37.60
2019-05-21T04:56:56.036Z,35.27
2019-05-21T04:59:24.186Z,38.20
2019-05-21T05:01:52.373Z,40.60
2019-05-21T05:04:22.141Z,38.43
2019-05-21T05:06:50.623Z,39.17
2019-05-21T05:09:18.881Z,42.33
2019-05-21T05:11:47.318Z,41.57
2019-05-21T05:14:15.473Z,39.60
2019-05-21T05:16:43.657Z,40.40
2019-05-21T05:19:11.779Z,39.97
2019-05-21T05:21:39.920Z,39.27
2019-05-21T05:24:08.032Z,41.40
2019-05-21T05:26:36.172Z,42.70
2019-05-21T05:29:04.298Z,40.77
2019-05-21T05:31:32.444Z,41.90
2019-05-21T05:34:00.632Z,42.77
2019-05-21T05:36:28.777Z,41.47
2019-05-21T05:38:56.941Z,40.80
2019-05-21T05:41:25.894Z,42.43
2019-05-21T05:43:54.273Z,40.30
2019-05-21T05:46:22.501Z,41.33
2019-05-21T05:48:52.337Z,37.87
2019-05-21T05:51:20.482Z,40.47
2019-05-21T05:53:58.304Z,41.57
2019-05-21T05:56:27.108Z,40.23
2019-05-21T05:58:55.297Z,36.60
2019-05-21T06:01:24.479Z,39.57
2019-05-21T06:03:52.602Z,40.50
2019-05-21T06:06:21.037Z,40.63
2019-05-21T06:08:49.147Z,41.67
2019-05-21T06:11:17.357Z,39.50
2019-05-21T06:13:45.762Z,40.10
2019-05-21T06:16:14.169Z,39.67
2019-05-21T06:18:42.289Z,40.60
2019-05-21T06:21:10.429Z,40.13
2019-05-21T06:23:38.621Z,42.77
2019-05-21T06:26:07.249Z,37.40
2019-05-21T06:28:35.447Z,42.30
2019-05-21T06:31:03.667Z,43.57
2019-05-21T06:33:31.790Z,40.80
2019-05-21T06:36:00.009Z,41.47
2019-05-21T06:38:28.235Z,43.30
2019-05-21T06:40:56.424Z,42.37
2019-05-21T06:43:24.621Z,45.57
2019-05-21T06:45:52.812Z,42.70
2019-05-21T06:48:20.948Z,44.17
2019-05-21T06:50:49.070Z,44.27
2019-05-21T06:53:17.204Z,44.30
2019-05-21T06:55:45.333Z,39.60
2019-05-21T06:58:13.784Z,41.83
2019-05-21T07:00:42.179Z,43.37
2019-05-21T07:03:10.327Z,42.50
2019-05-21T07:05:38.447Z,41.87
2019-05-21T07:08:06.584Z,36.97
2019-05-21T07:10:34.718Z,38.97
2019-05-21T07:13:02.853Z,39.83
2019-05-21T07:15:30.984Z,39.40
2019-05-21T07:17:59.225Z,38.57
2019-05-21T07:20:27.412Z,39.27
2019-05-21T07:22:55.831Z,37.70
2019-05-21T07:25:24.093Z,37.03
2019-05-21T07:27:52.473Z,36.90
2019-05-21T07:30:20.756Z,33.47
2019-05-21T07:32:49.270Z,36.70
2019-05-21T07:35:17.653Z,33.80
2019-05-21T07:37:45.805Z,37.47
2019-05-21T07:40:14.416Z,37.57
2019-05-21T07:42:42.527Z,37.10
2019-05-21T07:45:10.729Z,39.90
2019-05-21T07:47:39.181Z,37.27
2019-05-21T07:50:07.490Z,37.30
2019-05-21T07:52:35.936Z,36.40
2019-05-21T07:55:04.521Z,37.77
2019-05-21T07:57:32.684Z,37.17
2019-05-21T08:00:00.864Z,35.83
2019-05-21T08:02:29.097Z,33.67
2019-05-21T08:04:57.216Z,33.90
2019-05-21T08:07:25.433Z,30.93
2019-05-21T08:09:53.548Z,33.70
2019-05-21T08:12:37.223Z,34.37
2019-05-21T08:14:51.526Z,33.27
2019-05-21T08:17:19.994Z,33.93
2019-05-21T08:19:48.176Z,35.10
2019-05-21T08:22:16.407Z,36.27
2019-05-21T08:24:44.530Z,30.67
2019-05-21T08:27:12.750Z,39.30
2019-05-21T08:29:40.868Z,37.70
2019-05-21T08:32:09.357Z,36.63
2019-05-21T08:34:37.522Z,35.50
2019-05-21T08:37:05.793Z,35.30
2019-05-21T08:39:33.982Z,32.77
2019-05-21T08:42:02.209Z,36.13
2019-05-21T08:44:30.397Z,36.67
2019-05-21T08:46:58.804Z,38.60
2019-05-21T08:49:26.969Z,37.23
2019-05-21T08:51:55.088Z,36.77
2019-05-21T08:54:41.261Z,36.43
2019-05-21T08:57:09.571Z,27.83
2019-05-21T08:59:37.768Z,37.50
2019-05-21T09:02:06.061Z,37.67
2019-05-21T09:07:04.212Z,37.63
2019-05-21T09:09:10.073Z,39.17
2019-05-21T09:09:48.323Z,34.53
2019-05-21T09:12:02.217Z,31.27
2019-05-21T09:14:30.351Z,35.57
2019-05-21T09:16:58.615Z,40.83
2019-05-21T09:19:26.821Z,41.17
2019-05-21T09:21:54.945Z,40.17
2019-05-21T09:24:23.148Z,37.43
2019-05-21T09:26:51.340Z,38.73
2019-05-21T09:29:19.728Z,38.27
2019-05-21T09:31:48.245Z,36.67
2019-05-21T09:34:16.528Z,37.97
2019-05-21T09:36:44.652Z,37.03
2019-05-21T09:39:12.808Z,37.87
2019-05-21T09:41:40.951Z,35.27
2019-05-21T09:44:09.132Z,35.57
2019-05-21T09:46:37.256Z,37.23
2019-05-21T09:49:05.655Z,39.10
2019-05-21T09:51:33.864Z,39.87
2019-05-21T09:54:02.116Z,39.67
2019-05-21T09:56:33.412Z,37.30
2019-05-21T09:59:27.080Z,40.10
2019-05-21T10:02:02.579Z,39.80
2019-05-21T10:04:30.700Z,39.63
2019-05-21T10:06:58.933Z,40.33
2019-05-21T10:09:28.676Z,39.30
2019-05-21T10:11:56.805Z,40.90
2019-05-21T10:14:24.948Z,39.60
2019-05-21T10:16:53.066Z,40.23
2019-05-21T10:19:21.269Z,34.90
2019-05-21T10:21:49.774Z,34.10
2019-05-21T10:24:18.161Z,31.60
2019-05-21T10:26:46.354Z,31.20
2019-05-21T10:29:14.487Z,31.47
2019-05-21T10:31:42.659Z,33.33
2019-05-21T10:34:13.253Z,34.83
2019-05-21T10:36:40.686Z,34.67
2019-05-21T10:39:08.868Z,35.43
2019-05-21T10:41:37.302Z,34.30
2019-05-21T10:44:05.499Z,31.27
2019-05-21T10:46:33.710Z,31.43
2019-05-21T10:49:02.137Z,30.87
2019-05-21T10:51:30.611Z,33.57
2019-05-21T10:53:58.825Z,32.33
2019-05-21T10:56:27.059Z,33.43
2019-05-21T10:58:55.181Z,33.63
2019-05-21T11:01:36.560Z,36.00
2019-05-21T11:04:23.112Z,33.57
2019-05-21T11:06:51.403Z,32.57
2019-05-21T11:09:22.984Z,31.20
2019-05-21T11:11:51.206Z,32.37
2019-05-21T11:14:19.488Z,31.80
2019-05-21T11:16:47.644Z,31.20
2019-05-21T11:19:15.840Z,32.60
2019-05-21T11:21:44.024Z,30.50
2019-05-21T11:24:12.540Z,33.70
2019-05-21T11:26:40.995Z,34.17
2019-05-21T11:29:09.127Z,32.73
2019-05-21T11:31:37.420Z,31.33
2019-05-21T11:34:05.632Z,31.20
2019-05-21T11:36:33.752Z,29.50
2019-05-21T11:39:01.979Z,28.13
2019-05-21T11:41:30.405Z,27.50
2019-05-21T11:43:58.549Z,25.70
2019-05-21T11:46:27.057Z,24.70
2019-05-21T11:48:55.279Z,24.53
2019-05-21T11:51:23.486Z,23.47
2019-05-21T11:53:51.736Z,23.57
2019-05-21T11:56:19.939Z,24.43
2019-05-21T11:58:48.053Z,26.00
2019-05-21T12:01:16.422Z,26.03
2019-05-21T12:03:44.670Z,28.57
2019-05-21T12:06:12.816Z,27.30
2019-05-21T12:08:55.485Z,27.23
2019-05-21T12:11:10.944Z,27.00
2019-05-21T12:13:39.120Z,29.13
2019-05-21T12:16:07.276Z,30.53
2019-05-21T12:18:35.456Z,28.27
2019-05-21T12:21:03.733Z,26.03
2019-05-21T12:23:31.881Z,27.37
2019-05-21T12:26:00.463Z,27.53
2019-05-21T12:28:28.793Z,25.23
2019-05-21T12:30:56.981Z,25.93
2019-05-21T12:33:25.142Z,25.47
2019-05-21T12:35:53.410Z,26.93
2019-05-21T12:38:21.553Z,26.60
2019-05-21T12:40:49.706Z,26.50
2019-05-21T12:43:17.861Z,27.10
2019-05-21T12:45:46.014Z,26.77
2019-05-21T12:48:14.222Z,28.27
2019-05-21T12:50:42.395Z,26.67
2019-05-21T12:53:10.523Z,28.03
2019-05-21T12:55:38.758Z,28.70
2019-05-21T12:58:06.887Z,29.27
2019-05-21T13:00:35.501Z,29.67
2019-05-21T13:03:03.885Z,28.00
2019-05-21T13:05:32.061Z,29.20
2019-05-21T13:08:00.183Z,28.10
2019-05-21T13:10:28.967Z,28.90
2019-05-21T13:12:57.225Z,30.43
2019-05-21T13:15:25.519Z,29.50
2019-05-21T13:17:54.044Z,31.17
2019-05-21T13:20:22.293Z,31.07
2019-05-21T13:22:50.481Z,33.27
2019-05-21T13:25:18.796Z,31.90
2019-05-21T13:27:47.008Z,34.73
2019-05-21T13:30:15.428Z,34.70
2019-05-21T13:32:44.006Z,34.27
2019-05-21T13:35:12.395Z,35.07
2019-05-21T13:37:40.539Z,34.07
2019-05-21T13:40:09.288Z,34.10
2019-05-21T13:42:37.444Z,33.60
2019-05-21T13:45:06.989Z,33.13
2019-05-21T13:47:35.283Z,34.53
2019-05-21T13:50:05.019Z,33.03
2019-05-21T13:52:33.423Z,33.67
2019-05-21T13:55:01.535Z,32.90
2019-05-21T13:57:29.760Z,32.87
2019-05-21T13:59:58.308Z,35.37
2019-05-21T14:02:26.520Z,34.87
2019-05-21T14:04:54.648Z,34.77
2019-05-21T14:07:22.776Z,35.27
2019-05-21T14:10:12.548Z,35.23
2019-05-21T14:12:21.008Z,34.60
2019-05-21T14:14:49.187Z,36.50
2019-05-21T14:17:17.668Z,38.50
2019-05-21T14:19:45.970Z,42.37
2019-05-21T14:22:14.212Z,42.70
2019-05-21T14:24:42.355Z,43.47
2019-05-21T14:27:10.550Z,42.77
2019-05-21T14:29:38.688Z,40.57
2019-05-21T14:32:07.124Z,38.87
2019-05-21T14:34:35.344Z,40.90
2019-05-21T14:37:03.456Z,40.30
2019-05-21T14:39:31.592Z,40.60
2019-05-21T14:41:59.717Z,39.73
2019-05-21T14:44:27.844Z,40.17
2019-05-21T14:46:55.961Z,39.73
2019-05-21T14:49:24.137Z,40.90
2019-05-21T14:51:52.895Z,41.90
2019-05-21T14:54:26.775Z,43.43
2019-05-21T14:56:51.223Z,39.50
2019-05-21T14:59:19.661Z,37.47
2019-05-21T15:01:47.805Z,34.43
2019-05-21T15:04:16.006Z,35.57
2019-05-21T15:06:44.336Z,35.67
2019-05-21T15:09:12.451Z,32.37
2019-05-21T15:11:40.605Z,32.97
2019-05-21T15:14:08.723Z,32.07
2019-05-21T15:16:36.856Z,31.47
2019-05-21T15:19:05.036Z,32.17
2019-05-21T15:21:35.155Z,32.43
2019-05-21T15:24:03.659Z,31.43
2019-05-21T15:26:32.256Z,34.70
2019-05-21T15:29:00.397Z,32.00
2019-05-21T15:31:28.594Z,32.07
2019-05-21T15:33:56.719Z,33.07
2019-05-21T15:36:24.941Z,32.00
2019-05-21T15:38:53.095Z,31.30
2019-05-21T15:41:21.217Z,31.13
2019-05-21T15:43:49.632Z,30.87
2019-05-21T15:46:17.899Z,32.73
2019-05-21T15:48:46.036Z,30.60
2019-05-21T15:51:14.150Z,32.57
2019-05-21T15:53:42.634Z,30.57
2019-05-21T15:56:10.759Z,30.67
2019-05-21T15:58:38.888Z,30.03
2019-05-21T16:01:07.071Z,29.53
2019-05-21T16:03:35.207Z,29.13
2019-05-21T16:06:03.386Z,28.03
2019-05-21T16:08:31.599Z,27.07
2019-05-21T16:10:59.804Z,28.23
2019-05-21T16:13:28.317Z,27.07
2019-05-21T16:15:56.432Z,27.17
2019-05-21T16:18:24.573Z,29.93
2019-05-21T16:20:52.754Z,27.57
2019-05-21T16:23:20.870Z,27.10
2019-05-21T16:25:49.003Z,26.63
2019-05-21T16:28:17.189Z,25.43
2019-05-21T16:30:45.320Z,26.40
2019-05-21T16:33:13.431Z,27.27
2019-05-21T16:35:41.639Z,28.33
2019-05-21T16:38:09.763Z,24.40
2019-05-21T16:40:38.177Z,22.43
2019-05-21T16:43:06.792Z,19.77
2019-05-21T16:45:34.995Z,21.40
2019-05-21T16:48:03.189Z,17.13
2019-05-21T16:50:31.328Z,13.93
2019-05-21T16:52:59.448Z,13.70
2019-05-21T16:55:27.861Z,13.57
2019-05-21T16:57:56.803Z,12.07
2019-05-21T17:00:25.612Z,11.73
2019-05-21T17:02:53.716Z,12.07
2019-05-21T17:05:21.915Z,11.73
2019-05-21T17:07:50.040Z,12.03
2019-05-21T17:10:18.256Z,12.03
2019-05-21T17:12:46.438Z,11.57
2019-05-21T17:15:14.560Z,12.20
2019-05-21T17:17:43.057Z,12.37
2019-05-21T17:20:14.950Z,12.17
2019-05-21T17:22:43.654Z,11.63
2019-05-21T17:25:12.104Z,12.90
2019-05-21T17:27:40.220Z,13.13
2019-05-21T17:30:09.105Z,12.83
2019-05-21T17:32:37.401Z,12.87
2019-05-21T17:35:06.203Z,11.47
2019-05-21T17:37:34.567Z,12.73
2019-05-21T17:40:03.055Z,12.30
2019-05-21T17:42:31.199Z,12.97
2019-05-21T17:45:00.867Z,11.70
2019-05-21T17:47:29.071Z,11.77
2019-05-21T17:49:57.188Z,12.50
2019-05-21T17:52:26.174Z,12.67
2019-05-21T17:54:57.087Z,11.53
2019-05-21T17:57:26.045Z,13.33
2019-05-21T17:59:54.404Z,12.67
2019-05-21T18:02:23.014Z,11.00
2019-05-21T18:04:51.473Z,11.50
2019-05-21T18:07:20.881Z,12.50
2019-05-21T18:09:49.636Z,10.33
2019-05-21T18:12:31.260Z,9.60
2019-05-21T18:14:49.344Z,10.13
2019-05-21T18:17:19.096Z,10.53
2019-05-21T18:19:47.315Z,11.00
2019-05-21T18:22:17.059Z,9.93
2019-05-21T18:24:48.591Z,10.13
2019-05-21T18:27:15.233Z,11.23
2019-05-21T18:29:43.499Z,10.97
2019-05-21T18:32:11.985Z,9.30
2019-05-21T18:34:40.365Z,10.57
2019-05-21T18:37:08.543Z,9.70
2019-05-21T18:39:37.433Z,9.37
2019-05-21T18:42:19.644Z,9.23
2019-05-21T18:44:35.464Z,9.23
2019-05-21T18:47:04.485Z,9.20
2019-05-21T18:49:32.660Z,8.53
2019-05-21T18:52:00.849Z,8.90
2019-05-21T18:54:28.967Z,9.27
2019-05-21T18:56:57.096Z,9.30
2019-05-21T18:59:25.276Z,10.33
2019-05-21T19:01:53.742Z,9.97
2019-05-21T19:04:21.846Z,9.97
2019-05-21T19:06:50.057Z,8.83
2019-05-21T19:09:18.176Z,10.10
2019-05-21T19:11:46.398Z,9.20
2019-05-21T19:14:14.500Z,9.10
2019-05-21T19:16:42.701Z,8.60
2019-05-21T19:19:10.822Z,8.43
2019-05-21T19:21:38.929Z,8.03
2019-05-21T19:24:07.623Z,8.07
2019-05-21T19:26:36.076Z,8.67
2019-05-21T19:29:07.661Z,7.50
2019-05-21T19:31:34.041Z,7.93
2019-05-21T19:34:02.257Z,7.80
2019-05-21T19:36:30.374Z,8.20
2019-05-21T19:38:58.531Z,8.47
2019-05-21T19:41:27.057Z,8.93
2019-05-21T19:43:55.276Z,7.77
2019-05-21T19:46:23.379Z,8.00
2019-05-21T19:48:51.582Z,8.87
2019-05-21T19:51:19.735Z,7.67
2019-05-21T19:53:47.948Z,7.67
2019-05-21T19:56:16.139Z,8.43
2019-05-21T19:58:44.264Z,7.60
2019-05-21T20:01:12.823Z,8.13
2019-05-21T20:03:41.150Z,8.17
2019-05-21T20:06:11.124Z,8.67
2019-05-21T20:08:40.683Z,8.53
2019-05-21T20:11:09.052Z,8.30
2019-05-21T20:13:37.321Z,8.83
2019-05-21T20:16:05.820Z,9.17
2019-05-21T20:18:34.300Z,9.33
2019-05-21T20:21:02.512Z,9.73
2019-05-21T20:23:30.990Z,10.17
2019-05-21T20:25:59.306Z,11.03
2019-05-21T20:28:27.582Z,12.20
2019-05-21T20:30:56.081Z,11.63
2019-05-21T20:33:24.292Z,12.57
2019-05-21T20:35:53.544Z,13.73
2019-05-21T20:38:21.665Z,13.47
2019-05-21T20:40:50.121Z,14.07
2019-05-21T20:43:20.930Z,14.67
2019-05-21T20:45:51.175Z,15.90
2019-05-21T20:48:21.245Z,16.50
2019-05-21T20:50:49.368Z,17.00
2019-05-21T20:53:18.244Z,17.73
2019-05-21T20:55:46.628Z,17.33
2019-05-21T20:58:14.906Z,17.67
2019-05-21T21:00:54.136Z,17.90
2019-05-21T21:03:23.357Z,18.23
2019-05-21T21:05:51.917Z,19.17
2019-05-21T21:08:20.858Z,20.37
2019-05-21T21:10:49.073Z,20.93
2019-05-21T21:13:18.412Z,20.27
2019-05-21T21:15:47.368Z,17.30
2019-05-21T21:18:15.500Z,20.27
2019-05-21T21:20:43.852Z,19.97
2019-05-21T21:23:12.240Z,20.27
2019-05-21T21:25:40.549Z,20.37
2019-05-21T21:28:08.692Z,20.17
2019-05-21T21:30:37.357Z,22.43
2019-05-21T21:33:07.119Z,22.20
2019-05-21T21:35:36.366Z,21.73
2019-05-21T21:38:06.024Z,23.03
2019-05-21T21:40:34.500Z,22.50
2019-05-21T21:43:02.746Z,21.03
2019-05-21T21:45:32.125Z,20.73
2019-05-21T21:48:00.676Z,20.90
2019-05-21T21:50:28.824Z,21.17
2019-05-21T21:52:57.027Z,20.67
2019-05-21T21:55:25.310Z,21.37
2019-05-21T21:57:53.428Z,20.40
2019-05-21T22:00:33.906Z,21.13
2019-05-21T22:03:03.983Z,20.40
2019-05-21T22:05:33.514Z,18.33
2019-05-21T22:08:02.010Z,17.20
2019-05-21T22:10:30.157Z,17.90
2019-05-21T22:12:58.339Z,17.27
2019-05-21T22:15:26.752Z,17.67
2019-05-21T22:17:54.945Z,17.07
2019-05-21T22:20:23.445Z,16.37
2019-05-21T22:22:51.694Z,16.43
2019-05-21T22:25:20.150Z,16.60
2019-05-21T22:27:48.347Z,17.87
2019-05-21T22:30:18.179Z,17.23
2019-05-21T22:32:46.399Z,16.60
2019-05-21T22:35:14.516Z,17.80
2019-05-21T22:37:42.753Z,19.33
2019-05-21T22:40:11.041Z,19.50
2019-05-21T22:42:39.246Z,18.93
2019-05-21T22:45:09.384Z,20.13
2019-05-21T22:47:37.576Z,19.40
2019-05-21T22:50:08.886Z,19.33
2019-05-21T22:52:37.019Z,18.20
2019-05-21T22:55:06.265Z,20.37
2019-05-21T22:57:34.552Z,18.30
2019-05-21T23:00:02.918Z,19.77
2019-05-21T23:02:33.006Z,20.67
2019-05-21T23:05:01.170Z,20.67
2019-05-21T23:07:29.293Z,20.17
2019-05-21T23:09:58.486Z,18.27
2019-05-21T23:12:27.149Z,19.53
2019-05-21T23:14:55.268Z,19.07
2019-05-21T23:17:23.653Z,20.03
2019-05-21T23:19:52.076Z,20.93
2019-05-21T23:22:21.827Z,19.87
2019-05-21T23:24:50.013Z,21.53
2019-05-21T23:27:19.283Z,21.70
2019-05-21T23:29:47.857Z,22.93
2019-05-21T23:32:16.832Z,24.30
2019-05-21T23:34:44.940Z,25.50
2019-05-21T23:37:16.364Z,27.23
2019-05-21T23:39:45.799Z,28.70
2019-05-21T23:42:27.191Z,26.40
2019-05-21T23:44:44.236Z,26.93
2019-05-21T23:47:13.442Z,25.43
2019-05-21T23:49:41.552Z,25.33
2019-05-21T23:52:09.755Z,25.50
2019-05-21T23:54:37.935Z,24.90
2019-05-21T23:57:08.371Z,24.27
2019-05-21T23:59:36.551Z,24.43
